Time;durP1;ratioP1;P1;durP2;ratioP2;P2;SDS_P1;SDS_P2;PMS_P1;PMS_P2;Temp;Humidity;BMP_temperature;BMP_pressure;BME280_temperature;BME280_humidity;BME280_pressure;Samples;Min_cycle;Max_cycle;Signal;HPM_P1;HPM_P2
2023/03/02 00:01:48;;;;;;;;;;;;;;;7.18;72.94;102128.19;7358051;19;19982;-64
2023/03/02 00:04:19;;;;;;;;;;;;;;;7.15;71.12;102138.88;7354917;19;20260;-65
2023/03/02 00:06:48;;;;;;;;;;;;;;;7.16;70.94;102130.88;7358410;19;19919;-65
2023/03/02 00:09:15;;;;;;;;;;;;;;;7.17;70.60;102136.97;7358564;19;19911;-64
2023/03/02 00:11:44;;;;;;;;;;;;;;;7.15;70.94;102133.63;7359323;19;20009;-64
2023/03/02 00:14:11;;;;;;;;;;;;;;;7.13;70.33;102136.34;7356341;19;19914;-64
2023/03/02 00:16:39;;;;;;;;;;;;;;;7.08;70.14;102127.94;7358303;19;20435;-63
2023/03/02 00:19:06;;;;;;;;;;;;;;;7.12;70.56;102129.41;7356763;19;19998;-69
2023/03/02 00:21:33;;;;;;;;;;;;;;;7.12;70.52;102123.34;7357461;19;20312;-64
2023/03/02 00:24:00;;;;;;;;;;;;;;;7.14;70.10;102130.16;7356604;19;19930;-63
2023/03/02 00:26:27;;;;;;;;;;;;;;;7.14;70.12;102124.09;7358851;19;19918;-66
2023/03/02 00:28:54;;;;;;;;;;;;;;;7.13;69.72;102120.63;7356178;19;19914;-64
2023/03/02 00:31:21;;;;;;;;;;;;;;;7.12;69.76;102124.19;7358432;19;19925;-64
2023/03/02 00:33:50;;;;;;;;;;;;;;;7.12;70.22;102121.56;7354651;19;19919;-64
2023/03/02 00:36:17;;;;;;;;;;;;;;;7.10;69.35;102115.59;7360041;19;20231;-63
2023/03/02 00:38:44;;;;;;;;;;;;;;;7.07;69.64;102126.25;7356626;19;19933;-65
2023/03/02 00:41:12;;;;;;;;;;;;;;;7.05;69.52;102120.28;7358350;19;19922;-64
2023/03/02 00:43:39;;;;;;;;;;;;;;;7.04;69.45;102121.22;7353206;19;20513;-64
2023/03/02 00:46:09;;;;;;;;;;;;;;;7.00;69.89;102122.38;7356528;19;20601;-65
2023/03/02 00:48:37;;;;;;;;;;;;;;;7.02;70.33;102112.63;7356501;19;19923;-64
2023/03/02 00:51:04;;;;;;;;;;;;;;;6.98;71.25;102120.78;7357667;19;19958;-64
2023/03/02 00:53:32;;;;;;;;;;;;;;;6.93;70.49;102117.59;7357961;19;20433;-65
2023/03/02 00:56:03;;;;;;;;;;;;;;;6.95;70.09;102113.97;7355605;19;21813;-64
2023/03/02 00:58:31;;;;;;;;;;;;;;;6.95;70.78;102113.97;7355843;19;19929;-65
2023/03/02 01:00:58;;;;;;;;;;;;;;;6.94;71.07;102117.53;7359339;19;19951;-64
2023/03/02 01:03:25;;;;;;;;;;;;;;;6.91;70.85;102111.66;7355942;19;20406;-66
2023/03/02 01:05:54;;;;;;;;;;;;;;;6.93;70.64;102110.59;7356438;19;20537;-65
2023/03/02 01:08:21;;;;;;;;;;;;;;;6.96;70.22;102113.00;7356507;19;20343;-65
2023/03/02 01:10:49;;;;;;;;;;;;;;;6.98;70.22;102108.53;7357929;19;19922;-66
2023/03/02 01:13:17;;;;;;;;;;;;;;;6.96;69.89;102102.53;7353971;19;19944;-63
2023/03/02 01:15:44;;;;;;;;;;;;;;;6.98;70.45;102105.06;7355451;19;19929;-64
2023/03/02 01:18:11;;;;;;;;;;;;;;;6.98;69.95;102103.28;7355579;19;20741;-65
2023/03/02 01:20:38;;;;;;;;;;;;;;;6.95;70.01;102098.28;7357957;19;19923;-66
2023/03/02 01:23:05;;;;;;;;;;;;;;;6.94;71.52;102100.97;7357854;19;19927;-65
2023/03/02 01:25:32;;;;;;;;;;;;;;;6.88;72.15;102097.81;7358337;19;19926;-65
2023/03/02 01:27:59;;;;;;;;;;;;;;;6.90;71.20;102089.03;7357397;19;19919;-65
2023/03/02 01:30:26;;;;;;;;;;;;;;;6.85;71.57;102098.03;7353819;19;19952;-64
2023/03/02 01:32:53;;;;;;;;;;;;;;;6.84;71.05;102091.09;7356116;19;21052;-64
2023/03/02 01:35:20;;;;;;;;;;;;;;;6.81;72.29;102095.66;7355837;19;20252;-65
2023/03/02 01:37:47;;;;;;;;;;;;;;;6.80;72.04;102096.63;7356149;19;20190;-64
2023/03/02 01:40:16;;;;;;;;;;;;;;;6.78;71.71;102088.03;7355687;19;19943;-64
2023/03/02 01:42:46;;;;;;;;;;;;;;;6.78;72.38;102086.25;7356405;19;20319;-64
2023/03/02 01:45:16;;;;;;;;;;;;;;;6.81;73.41;102085.22;7356132;19;20009;-64
2023/03/02 01:47:43;;;;;;;;;;;;;;;6.79;73.15;102077.47;7363582;19;20743;-66
2023/03/02 01:50:10;;;;;;;;;;;;;;;6.79;72.41;102077.47;7361999;19;19922;-65
2023/03/02 01:52:38;;;;;;;;;;;;;;;6.84;72.59;102087.66;7362443;19;19923;-63
2023/03/02 01:55:07;;;;;;;;;;;;;;;6.85;72.61;102081.47;7361991;19;20735;-64
2023/03/02 01:57:42;;;;;;;;;;;;;;;6.84;72.85;102075.41;7362280;19;20256;-64
2023/03/02 02:00:12;;;;;;;;;;;;;;;6.84;72.52;102075.41;7360881;19;19919;-63
2023/03/02 02:02:40;;;;;;;;;;;;;;;6.85;70.77;102071.88;7362483;19;19939;-64
2023/03/02 02:05:10;;;;;;;;;;;;;;;6.84;70.68;102066.72;7361894;19;19922;-65
2023/03/02 02:07:38;;;;;;;;;;;;;;;6.79;72.23;102074.88;7362467;19;19922;-64
2023/03/02 02:10:06;;;;;;;;;;;;;;;6.76;74.17;102068.97;7363737;19;20267;-64
2023/03/02 02:12:33;;;;;;;;;;;;;;;6.69;71.86;102065.09;7361117;19;20236;-64
2023/03/02 02:15:01;;;;;;;;;;;;;;;6.67;71.79;102066.94;7361752;19;20729;-66
2023/03/02 02:17:28;;;;;;;;;;;;;;;6.61;72.92;102065.56;7362281;19;19907;-64
2023/03/02 02:19:56;;;;;;;;;;;;;;;6.60;74.06;102066.50;7361683;19;19918;-64
2023/03/02 02:22:30;;;;;;;;;;;;;;;6.58;72.97;102064.91;7362325;19;20005;-65
2023/03/02 02:25:01;;;;;;;;;;;;;;;6.53;72.72;102062.59;7363531;19;19925;-65
2023/03/02 02:27:32;;;;;;;;;;;;;;;6.49;72.36;102058.50;7359504;19;19915;-64
2023/03/02 02:30:02;;;;;;;;;;;;;;;6.46;72.51;102063.91;7357115;19;19919;-64
2023/03/02 02:32:31;;;;;;;;;;;;;;;6.48;73.32;102066.41;7363417;19;20233;-62
2023/03/02 02:35:01;;;;;;;;;;;;;;;6.44;73.17;102058.78;7357981;19;20576;-64
2023/03/02 02:37:31;;;;;;;;;;;;;;;6.44;74.40;102061.41;7360305;19;19929;-64
2023/03/02 02:40:00;;;;;;;;;;;;;;;6.41;74.25;102061.56;7361846;19;19975;-64
2023/03/02 02:42:29;;;;;;;;;;;;;;;6.41;73.45;102068.56;7361432;19;19932;-65
2023/03/02 02:44:57;;;;;;;;;;;;;;;6.40;73.62;102064.28;7354628;19;19955;-64
2023/03/02 02:47:24;;;;;;;;;;;;;;;6.42;72.80;102065.88;7362284;19;19918;-64
2023/03/02 02:49:52;;;;;;;;;;;;;;;6.40;72.69;102069.50;7360245;19;20356;-64
2023/03/02 02:52:21;;;;;;;;;;;;;;;6.41;73.50;102069.41;7359366;19;19993;-64
2023/03/02 02:54:49;;;;;;;;;;;;;;;6.37;73.51;102065.31;7361606;19;19915;-64
2023/03/02 02:57:17;;;;;;;;;;;;;;;6.36;73.36;102066.25;7359805;19;19978;-65
2023/03/02 02:59:47;;;;;;;;;;;;;;;6.39;73.27;102065.22;7357823;19;19923;-64
2023/03/02 03:02:17;;;;;;;;;;;;;;;6.37;73.87;102067.94;7363415;19;19990;-63
2023/03/02 03:04:44;;;;;;;;;;;;;;;6.35;72.88;102064.56;7358591;19;19925;-64
2023/03/02 03:07:14;;;;;;;;;;;;;;;6.33;73.29;102050.75;7360699;19;19951;-64
2023/03/02 03:09:41;;;;;;;;;;;;;;;6.29;73.19;102057.13;7361605;19;20022;-64
2023/03/02 03:12:14;;;;;;;;;;;;;;;6.28;73.67;102062.44;7359733;19;19957;-65
2023/03/02 03:14:41;;;;;;;;;;;;;;;6.27;73.44;102053.75;7359639;19;19998;-65
2023/03/02 03:17:12;;;;;;;;;;;;;;;6.20;73.69;102055.06;7359770;19;20233;-64
2023/03/02 03:19:41;;;;;;;;;;;;;;;6.12;73.76;102059.91;7361724;19;19918;-64
2023/03/02 03:22:10;;;;;;;;;;;;;;;6.09;74.00;102057.50;7362059;19;19927;-64
2023/03/02 03:24:38;;;;;;;;;;;;;;;6.06;74.58;102054.22;7367170;19;19945;-64
2023/03/02 03:27:05;;;;;;;;;;;;;;;6.03;75.28;102057.03;7362353;19;19929;-64
2023/03/02 03:29:33;;;;;;;;;;;;;;;5.99;75.72;102054.59;7360061;19;20233;-65
2023/03/02 03:32:01;;;;;;;;;;;;;;;6.01;75.87;102057.97;7360340;19;19921;-64
2023/03/02 03:34:29;;;;;;;;;;;;;;;6.04;75.10;102054.34;7358906;19;20288;-64
2023/03/02 03:37:00;;;;;;;;;;;;;;;6.05;75.17;102056.00;7359632;19;19926;-65
2023/03/02 03:39:29;;;;;;;;;;;;;;;6.02;76.60;102053.56;7360106;19;19915;-64
2023/03/02 03:41:56;;;;;;;;;;;;;;;5.98;77.42;102057.31;7359311;19;19919;-65
2023/03/02 03:44:23;;;;;;;;;;;;;;;5.97;76.21;102058.25;7355694;19;19951;-64
2023/03/02 03:46:50;;;;;;;;;;;;;;;5.98;75.89;102052.94;7358658;19;19918;-65
2023/03/02 03:49:16;;;;;;;;;;;;;;;6.00;76.24;102055.44;7359007;19;19919;-64
2023/03/02 03:51:43;;;;;;;;;;;;;;;6.02;75.87;102056.19;7356605;19;20465;-64
2023/03/02 03:54:10;;;;;;;;;;;;;;;6.00;75.43;102052.81;7360397;19;19919;-64
2023/03/02 03:56:39;;;;;;;;;;;;;;;5.97;75.08;102056.47;7359019;19;20779;-65
2023/03/02 03:59:06;;;;;;;;;;;;;;;5.92;75.28;102050.69;7356897;19;19927;-64
2023/03/02 04:01:37;;;;;;;;;;;;;;;5.89;75.96;102053.47;7358400;19;19990;-65
2023/03/02 04:04:05;;;;;;;;;;;;;;;5.88;75.44;102069.25;7357716;19;19998;-64
2023/03/02 04:06:32;;;;;;;;;;;;;;;5.85;75.67;102062.38;7359198;19;19990;-64
2023/03/02 04:09:03;;;;;;;;;;;;;;;5.82;77.00;102066.97;7356528;19;19923;-64
2023/03/02 04:11:31;;;;;;;;;;;;;;;5.80;76.51;102068.81;7354774;19;19931;-67
2023/03/02 04:13:58;;;;;;;;;;;;;;;5.79;76.83;102082.81;7356615;19;19915;-64
2023/03/02 04:16:25;;;;;;;;;;;;;;;5.78;76.68;102074.16;7358960;19;19922;-66
2023/03/02 04:18:52;;;;;;;;;;;;;;;5.76;76.43;102081.22;7358159;19;21777;-66
2023/03/02 04:21:19;;;;;;;;;;;;;;;5.71;76.56;102079.81;7358252;19;19965;-67
2023/03/02 04:23:45;;;;;;;;;;;;;;;5.70;77.38;102076.34;7358029;19;20407;-64
2023/03/02 04:26:12;;;;;;;;;;;;;;;5.62;77.71;102075.97;7356500;19;20820;-65
2023/03/02 04:28:39;;;;;;;;;;;;;;;5.67;77.08;102081.75;7356988;19;20337;-63
2023/03/02 04:31:06;;;;;;;;;;;;;;;5.66;78.36;102080.06;7361487;19;19926;-67
2023/03/02 04:33:33;;;;;;;;;;;;;;;5.60;77.32;102075.22;7356487;19;19927;-64
2023/03/02 04:36:00;;;;;;;;;;;;;;;5.59;77.79;102073.53;7357949;19;19986;-65
2023/03/02 04:38:28;;;;;;;;;;;;;;;5.58;78.51;102075.31;7357665;19;19982;-64
2023/03/02 04:40:56;;;;;;;;;;;;;;;5.59;77.06;102076.97;7360386;19;19922;-65
2023/03/02 04:43:24;;;;;;;;;;;;;;;5.57;77.27;102075.41;7356110;19;20005;-64
2023/03/02 04:45:51;;;;;;;;;;;;;;;5.56;78.81;102078.94;7357678;19;19927;-64
2023/03/02 04:48:19;;;;;;;;;;;;;;;5.55;78.35;102078.09;7356740;19;19939;-65
2023/03/02 04:50:45;;;;;;;;;;;;;;;5.55;77.68;102072.03;7357086;19;19927;-69
2023/03/02 04:53:12;;;;;;;;;;;;;;;5.52;77.80;102078.28;7356842;19;20014;-63
2023/03/02 04:55:40;;;;;;;;;;;;;;;5.51;78.72;102071.38;7359193;19;19937;-64
2023/03/02 04:58:07;;;;;;;;;;;;;;;5.50;78.67;102077.53;7357806;19;19927;-63
2023/03/02 05:00:34;;;;;;;;;;;;;;;5.49;79.09;102077.59;7355539;19;20430;-63
2023/03/02 05:03:02;;;;;;;;;;;;;;;5.54;78.27;102080.78;7356643;19;19919;-64
2023/03/02 05:05:29;;;;;;;;;;;;;;;5.52;78.50;102072.22;7355538;19;19926;-64
2023/03/02 05:07:57;;;;;;;;;;;;;;;5.50;78.74;102067.09;7356952;19;20504;-64
2023/03/02 05:10:25;;;;;;;;;;;;;;;5.54;78.60;102075.56;7357995;19;19994;-64
2023/03/02 05:12:53;;;;;;;;;;;;;;;5.50;78.29;102079.28;7356430;19;20470;-63
2023/03/02 05:15:21;;;;;;;;;;;;;;;5.49;78.69;102077.59;7354632;19;19923;-64
2023/03/02 05:17:48;;;;;;;;;;;;;;;5.46;78.88;102064.75;7355994;19;19941;-64
2023/03/02 05:20:15;;;;;;;;;;;;;;;5.42;79.08;102066.69;7359650;19;20191;-64
2023/03/02 05:22:42;;;;;;;;;;;;;;;5.42;79.68;102065.84;7364836;19;19962;-64
2023/03/02 05:25:10;;;;;;;;;;;;;;;5.43;79.68;102068.38;7361073;19;19953;-64
2023/03/02 05:27:37;;;;;;;;;;;;;;;5.44;79.45;102069.19;7364193;19;19994;-65
2023/03/02 05:30:04;;;;;;;;;;;;;;;5.43;79.75;102064.94;7361667;19;19994;-65
2023/03/02 05:32:31;;;;;;;;;;;;;;;5.45;80.34;102063.91;7364460;19;20309;-65
2023/03/02 05:34:58;;;;;;;;;;;;;;;5.44;79.69;102062.22;7363816;19;20561;-64
2023/03/02 05:37:25;;;;;;;;;;;;;;;5.46;79.62;102067.34;7363928;19;20011;-63
2023/03/02 05:39:52;;;;;;;;;;;;;;;5.46;79.06;102062.97;7362607;19;20402;-66
2023/03/02 05:42:19;;;;;;;;;;;;;;;5.44;79.32;102061.38;7364591;19;19919;-65
2023/03/02 05:44:45;;;;;;;;;;;;;;;5.43;79.66;102062.31;7359670;19;19931;-65
2023/03/02 05:47:12;;;;;;;;;;;;;;;5.42;79.58;102055.41;7363383;19;19927;-64
2023/03/02 05:49:39;;;;;;;;;;;;;;;5.43;79.87;102065.78;7362410;19;19923;-64
2023/03/02 05:52:06;;;;;;;;;;;;;;;5.44;79.52;102053.53;7361238;19;19955;-65
2023/03/02 05:54:35;;;;;;;;;;;;;;;5.42;80.17;102056.25;7361797;19;20025;-64
2023/03/02 05:57:02;;;;;;;;;;;;;;;5.39;80.65;102061.63;7363341;19;19917;-65
2023/03/02 05:59:29;;;;;;;;;;;;;;;5.40;81.49;102067.69;7360878;19;19919;-65
2023/03/02 06:01:57;;;;;;;;;;;;;;;5.39;80.42;102066.84;7363031;19;19921;-65
2023/03/02 06:04:25;;;;;;;;;;;;;;;5.43;79.69;102070.16;7360224;19;19945;-65
2023/03/02 06:06:52;;;;;;;;;;;;;;;5.43;80.01;102070.16;7362459;19;19953;-65
2023/03/02 06:09:18;;;;;;;;;;;;;;;5.41;79.96;102069.38;7362747;19;20038;-68
2023/03/02 06:11:45;;;;;;;;;;;;;;;5.32;80.44;102072.53;7362558;19;19990;-64
2023/03/02 06:14:12;;;;;;;;;;;;;;;5.38;80.05;102073.03;7359065;19;19986;-65
2023/03/02 06:16:39;;;;;;;;;;;;;;;5.38;80.48;102077.41;7363939;19;19954;-65
2023/03/02 06:19:06;;;;;;;;;;;;;;;5.39;80.42;102082.50;7361816;19;19951;-65
2023/03/02 06:21:32;;;;;;;;;;;;;;;5.41;79.81;102091.09;7363450;19;19995;-65
2023/03/02 06:24:01;;;;;;;;;;;;;;;5.43;81.16;102078.81;7361611;19;19950;-63
2023/03/02 06:26:27;;;;;;;;;;;;;;;5.46;80.29;102085.63;7361558;19;19945;-65
2023/03/02 06:28:54;;;;;;;;;;;;;;;5.46;79.96;102085.63;7358565;19;19950;-64
2023/03/02 06:31:21;;;;;;;;;;;;;;;5.47;79.55;102085.53;7359134;19;19930;-65
2023/03/02 06:33:48;;;;;;;;;;;;;;;5.48;80.07;102084.63;7361780;19;19911;-63
2023/03/02 06:36:16;;;;;;;;;;;;;;;5.50;80.14;102087.13;7361932;19;19986;-65
2023/03/02 06:38:43;;;;;;;;;;;;;;;5.50;81.04;102074.91;7360259;19;19987;-65
2023/03/02 06:41:10;;;;;;;;;;;;;;;5.54;80.53;102084.25;7362922;19;19948;-65
2023/03/02 06:43:37;;;;;;;;;;;;;;;5.58;79.43;102083.16;7358269;19;20246;-65
2023/03/02 06:46:04;;;;;;;;;;;;;;;5.58;78.97;102085.75;7360454;19;20037;-64
2023/03/02 06:48:30;;;;;;;;;;;;;;;5.56;79.26;102084.16;7360463;19;19919;-64
2023/03/02 06:50:57;;;;;;;;;;;;;;;5.56;79.66;102084.16;7361588;19;19914;-66
2023/03/02 06:53:24;;;;;;;;;;;;;;;5.56;79.74;102079.78;7360806;19;19957;-64
2023/03/02 06:55:51;;;;;;;;;;;;;;;5.62;79.52;102083.81;7363334;19;19918;-66
2023/03/02 06:58:18;;;;;;;;;;;;;;;5.64;78.76;102075.91;7362588;19;19994;-64
2023/03/02 07:00:45;;;;;;;;;;;;;;;5.62;79.39;102081.19;7362453;19;19926;-65
2023/03/02 07:03:12;;;;;;;;;;;;;;;5.62;78.88;102078.59;7360631;19;19930;-66
2023/03/02 07:05:39;;;;;;;;;;;;;;;5.65;78.86;102075.78;7358531;19;20386;-64
2023/03/02 07:08:06;;;;;;;;;;;;;;;5.68;80.04;102088.66;7360425;19;19919;-64
2023/03/02 07:10:33;;;;;;;;;;;;;;;5.66;78.38;102082.69;7361322;19;19922;-64
2023/03/02 07:13:00;;;;;;;;;;;;;;;5.64;78.79;102088.94;7358612;19;20617;-66
2023/03/02 07:15:26;;;;;;;;;;;;;;;5.65;78.87;102086.22;7357626;19;19943;-65
2023/03/02 07:17:53;;;;;;;;;;;;;;;5.67;78.65;102088.75;7360068;19;19998;-65
2023/03/02 07:20:20;;;;;;;;;;;;;;;5.69;78.60;102084.28;7358820;19;19939;-66
2023/03/02 07:22:47;;;;;;;;;;;;;;;5.72;78.92;102081.50;7360163;19;20325;-65
2023/03/02 07:25:14;;;;;;;;;;;;;;;5.76;78.87;102089.06;7358337;19;20361;-66
2023/03/02 07:27:41;;;;;;;;;;;;;;;5.78;77.89;102091.59;7355435;19;19919;-64
2023/03/02 07:30:08;;;;;;;;;;;;;;;5.83;78.46;102090.38;7356654;19;19915;-64
2023/03/02 07:32:35;;;;;;;;;;;;;;;5.86;78.02;102092.78;7362312;19;19923;-64
2023/03/02 07:35:02;;;;;;;;;;;;;;;5.93;77.34;102099.38;7361375;19;19943;-64
2023/03/02 07:37:29;;;;;;;;;;;;;;;5.91;77.02;102088.16;7359608;19;19922;-65
2023/03/02 07:39:56;;;;;;;;;;;;;;;5.91;76.87;102087.34;7359978;19;19943;-64
2023/03/02 07:42:26;;;;;;;;;;;;;;;5.92;76.99;102089.84;7359528;19;19925;-64
2023/03/02 07:44:53;;;;;;;;;;;;;;;5.91;77.11;102077.72;7358923;19;19941;-65
2023/03/02 07:47:20;;;;;;;;;;;;;;;5.99;78.06;102085.13;7359321;19;19923;-64
2023/03/02 07:49:47;;;;;;;;;;;;;;;6.04;76.58;102083.06;7359352;19;20521;-65
2023/03/02 07:52:14;;;;;;;;;;;;;;;6.08;76.97;102089.78;7355343;19;19945;-63
2023/03/02 07:54:41;;;;;;;;;;;;;;;6.10;76.26;102079.22;7355121;19;20015;-65
2023/03/02 07:57:08;;;;;;;;;;;;;;;6.15;76.14;102087.63;7358605;19;19919;-64
2023/03/02 07:59:35;;;;;;;;;;;;;;;6.16;76.22;102087.53;7357812;19;19922;-64
2023/03/02 08:02:04;;;;;;;;;;;;;;;6.19;75.67;102089.13;7359369;19;19923;-63
2023/03/02 08:04:33;;;;;;;;;;;;;;;6.23;77.06;102095.84;7360404;19;19919;-66
2023/03/02 08:07:00;;;;;;;;;;;;;;;6.22;77.24;102087.16;7362166;19;19963;-65
2023/03/02 08:09:27;;;;;;;;;;;;;;;6.32;78.19;102092.66;7360447;19;19925;-64
2023/03/02 08:11:54;;;;;;;;;;;;;;;6.39;77.80;102099.22;7357875;19;19927;-64
2023/03/02 08:14:21;;;;;;;;;;;;;;;6.41;77.01;102099.94;7355668;19;20345;-64
2023/03/02 08:16:51;;;;;;;;;;;;;;;6.50;75.18;102088.09;7357368;19;20259;-63
2023/03/02 08:19:18;;;;;;;;;;;;;;;6.58;75.87;102088.44;7358736;19;19949;-65
2023/03/02 08:21:45;;;;;;;;;;;;;;;6.71;77.77;102097.19;7356957;19;20277;-64
2023/03/02 08:24:14;;;;;;;;;;;;;;;6.78;76.22;102095.88;7357362;19;20935;-63
2023/03/02 08:26:41;;;;;;;;;;;;;;;6.82;74.37;102100.81;7358553;19;20011;-65
2023/03/02 08:29:09;;;;;;;;;;;;;;;6.85;74.41;102099.78;7355429;19;19927;-64
2023/03/02 08:31:36;;;;;;;;;;;;;;;6.81;73.71;102106.97;7359302;19;19933;-65
2023/03/02 08:34:04;;;;;;;;;;;;;;;6.83;74.77;102101.66;7360560;19;19921;-65
2023/03/02 08:36:37;;;;;;;;;;;;;;;6.87;74.32;102110.97;7356772;19;20030;-64
2023/03/02 08:39:04;;;;;;;;;;;;;;;6.84;73.38;102114.66;7356941;19;19930;-64
2023/03/02 08:41:33;;;;;;;;;;;;;;;6.85;74.79;102118.94;7355760;19;21219;-64
2023/03/02 08:44:04;;;;;;;;;;;;;;;6.80;74.97;102113.16;7357297;19;20283;-65
2023/03/02 08:46:31;;;;;;;;;;;;;;;6.76;74.32;102124.72;7352446;19;19926;-63
2023/03/02 08:48:58;;;;;;;;;;;;;;;6.85;74.56;102132.03;7358974;19;19918;-65
2023/03/02 08:51:25;;;;;;;;;;;;;;;6.83;73.81;102125.19;7356967;19;19922;-63
2023/03/02 08:53:54;;;;;;;;;;;;;;;6.83;73.71;102125.19;7357409;19;19934;-64
2023/03/02 08:56:24;;;;;;;;;;;;;;;6.87;74.13;102124.91;7357007;19;19911;-63
2023/03/02 08:58:51;;;;;;;;;;;;;;;6.95;74.39;102128.81;7356412;19;20207;-63
2023/03/02 09:01:20;;;;;;;;;;;;;;;7.01;73.88;102118.78;7360323;19;19930;-65
2023/03/02 09:03:47;;;;;;;;;;;;;;;7.09;72.01;102126.16;7360104;19;19932;-64
2023/03/02 09:06:15;;;;;;;;;;;;;;;7.11;72.32;102126.91;7357210;19;19959;-66
2023/03/02 09:08:42;;;;;;;;;;;;;;;7.14;73.07;102135.41;7357390;19;19946;-65
2023/03/02 09:11:09;;;;;;;;;;;;;;;7.15;73.44;102134.47;7360220;19;19949;-63
2023/03/02 09:13:36;;;;;;;;;;;;;;;7.17;72.02;102129.97;7357521;19;19914;-65
2023/03/02 09:16:04;;;;;;;;;;;;;;;7.26;71.76;102129.34;7358618;19;19923;-68
2023/03/02 09:18:31;;;;;;;;;;;;;;;7.27;71.06;102133.66;7358292;19;19926;-64
2023/03/02 09:20:58;;;;;;;;;;;;;;;7.29;71.39;102139.66;7354826;19;19926;-65
2023/03/02 09:23:25;;;;;;;;;;;;;;;7.30;71.86;102135.25;7357309;19;20509;-65
2023/03/02 09:25:52;;;;;;;;;;;;;;;7.35;71.89;102143.66;7354145;19;19922;-66
2023/03/02 09:28:20;;;;;;;;;;;;;;;7.45;71.81;102133.41;7358581;19;19925;-65
2023/03/02 09:30:50;;;;;;;;;;;;;;;7.54;70.65;102135.44;7356738;19;21088;-66
2023/03/02 09:33:18;;;;;;;;;;;;;;;7.59;69.77;102138.59;7349706;19;19929;-65
2023/03/02 09:35:46;;;;;;;;;;;;;;;7.66;69.97;102139.88;7353294;19;20038;-66
2023/03/02 09:38:15;;;;;;;;;;;;;;;7.70;69.86;102144.81;7355768;19;19973;-63
2023/03/02 09:40:51;;;;;;;;;;;;;;;7.81;70.59;102138.84;7354037;19;19925;-65
2023/03/02 09:43:21;;;;;;;;;;;;;;;7.83;68.70;102136.09;7356380;19;21103;-65
2023/03/02 09:45:48;;;;;;;;;;;;;;;7.87;69.26;102151.53;7355612;19;21609;-66
2023/03/02 09:48:16;;;;;;;;;;;;;;;7.94;69.11;102154.56;7359132;19;20005;-64
2023/03/02 09:50:46;;;;;;;;;;;;;;;7.98;68.10;102146.41;7356289;19;19934;-66
2023/03/02 09:53:16;;;;;;;;;;;;;;;8.04;69.00;102151.22;7356565;19;20493;-64
2023/03/02 09:55:44;;;;;;;;;;;;;;;7.98;68.14;102149.03;7359298;19;19915;-65
2023/03/02 09:58:15;;;;;;;;;;;;;;;8.06;68.91;102135.41;7355797;19;20325;-64
2023/03/02 10:00:42;;;;;;;;;;;;;;;8.03;69.07;102139.06;7355961;19;20332;-64
2023/03/02 10:03:16;;;;;;;;;;;;;;;8.14;68.57;102144.44;7356822;19;19918;-65
2023/03/02 10:05:45;;;;;;;;;;;;;;;8.04;67.14;102148.63;7357977;19;19923;-64
2023/03/02 10:08:15;;;;;;;;;;;;;;;8.16;67.06;102158.28;7361701;19;19921;-64
2023/03/02 10:10:45;;;;;;;;;;;;;;;8.08;66.81;102152.69;7362459;19;20286;-64
2023/03/02 10:13:12;;;;;;;;;;;;;;;7.90;66.98;102148.72;7361916;19;19919;-65
2023/03/02 10:15:45;;;;;;;;;;;;;;;7.97;67.70;102151.75;7363010;19;19929;-65
2023/03/02 10:18:17;;;;;;;;;;;;;;;8.00;66.33;102144.53;7363179;19;19961;-65
2023/03/02 10:20:47;;;;;;;;;;;;;;;8.12;66.06;102148.09;7361985;19;20339;-66
2023/03/02 10:23:22;;;;;;;;;;;;;;;8.18;66.50;102149.47;7360676;19;19929;-64
2023/03/02 10:25:52;;;;;;;;;;;;;;;8.17;67.11;102140.78;7360798;19;20023;-64
2023/03/02 10:28:20;;;;;;;;;;;;;;;8.26;67.29;102155.03;7361341;19;19926;-63
2023/03/02 10:30:53;;;;;;;;;;;;;;;8.38;64.44;102141.13;7360089;19;19914;-64
2023/03/02 10:33:20;;;;;;;;;;;;;;;8.39;64.49;102142.78;7363163;19;20370;-66
2023/03/02 10:35:49;;;;;;;;;;;;;;;8.37;63.76;102139.44;7361407;19;19927;-64
2023/03/02 10:38:18;;;;;;;;;;;;;;;8.21;63.91;102138.78;7360184;19;19923;-64
2023/03/02 10:40:46;;;;;;;;;;;;;;;8.22;64.27;102135.22;7359885;19;19998;-64
2023/03/02 10:43:15;;;;;;;;;;;;;;;8.17;65.96;102140.78;7361458;19;20522;-64
2023/03/02 10:45:42;;;;;;;;;;;;;;;8.20;66.63;102145.78;7359185;19;20097;-65
2023/03/02 10:48:10;;;;;;;;;;;;;;;8.25;64.55;102138.44;7361749;19;20350;-64
2023/03/02 10:50:37;;;;;;;;;;;;;;;8.23;64.96;102140.31;7358666;19;19929;-64
2023/03/02 10:53:07;;;;;;;;;;;;;;;8.30;65.22;102141.63;7360586;19;19922;-65
2023/03/02 10:55:34;;;;;;;;;;;;;;;8.37;64.00;102139.44;7361146;19;19922;-65
2023/03/02 10:58:06;;;;;;;;;;;;;;;8.44;64.07;102138.03;7361193;19;20516;-65
2023/03/02 11:00:33;;;;;;;;;;;;;;;8.56;64.83;102140.66;7358166;19;19927;-68
2023/03/02 11:03:02;;;;;;;;;;;;;;;8.59;63.01;102136.97;7359960;19;19923;-63
2023/03/02 11:05:30;;;;;;;;;;;;;;;8.56;62.88;102140.66;7359219;19;20979;-65
2023/03/02 11:08:00;;;;;;;;;;;;;;;8.63;62.63;102145.50;7361800;19;19914;-67
2023/03/02 11:10:30;;;;;;;;;;;;;;;8.70;63.01;102144.09;7360711;19;19944;-65
2023/03/02 11:12:58;;;;;;;;;;;;;;;8.75;64.24;102145.44;7361084;19;19935;-63
2023/03/02 11:15:27;;;;;;;;;;;;;;;8.79;62.75;102140.81;7358902;19;19926;-66
2023/03/02 11:17:57;;;;;;;;;;;;;;;8.58;62.25;102137.94;7361918;19;19978;-66
2023/03/02 11:20:27;;;;;;;;;;;;;;;8.42;62.62;102140.78;7359750;19;20290;-64
2023/03/02 11:22:54;;;;;;;;;;;;;;;8.43;63.22;102152.94;7361569;19;20232;-64
2023/03/02 11:25:25;;;;;;;;;;;;;;;8.37;62.69;102145.53;7362062;19;20573;-65
2023/03/02 11:27:56;;;;;;;;;;;;;;;8.41;63.36;102138.28;7362521;19;19919;-65
2023/03/02 11:30:25;;;;;;;;;;;;;;;8.39;63.28;102142.78;7360372;19;19941;-63
2023/03/02 11:32:57;;;;;;;;;;;;;;;8.48;63.14;102142.16;7360753;19;19946;-64
2023/03/02 11:35:27;;;;;;;;;;;;;;;8.56;63.88;102132.78;7359323;19;19923;-64
2023/03/02 11:37:56;;;;;;;;;;;;;;;8.58;62.73;102136.13;7361395;19;19971;-66
2023/03/02 11:40:29;;;;;;;;;;;;;;;8.68;63.08;102140.75;7358006;19;19925;-64
2023/03/02 11:42:58;;;;;;;;;;;;;;;8.74;62.78;102141.16;7361112;19;20049;-65
2023/03/02 11:45:28;;;;;;;;;;;;;;;8.86;63.78;102136.81;7359258;19;19923;-64
2023/03/02 11:47:57;;;;;;;;;;;;;;;8.88;62.85;102140.19;7361525;19;19918;-65
2023/03/02 11:50:31;;;;;;;;;;;;;;;8.90;62.10;102133.88;7359182;19;19923;-65
2023/03/02 11:53:00;;;;;;;;;;;;;;;8.88;60.99;102140.19;7360058;19;19945;-64
2023/03/02 11:55:32;;;;;;;;;;;;;;;8.82;60.58;102140.63;7358576;19;21160;-64
2023/03/02 11:58:02;;;;;;;;;;;;;;;8.81;61.26;102134.53;7360285;19;19951;-65
2023/03/02 12:00:32;;;;;;;;;;;;;;;8.84;61.47;102141.31;7357990;19;19922;-64
2023/03/02 12:03:01;;;;;;;;;;;;;;;8.87;61.69;102141.13;7359992;19;19934;-64
2023/03/02 12:05:30;;;;;;;;;;;;;;;8.92;60.55;102125.88;7358492;19;19937;-65
2023/03/02 12:07:58;;;;;;;;;;;;;;;8.94;60.34;102127.44;7360726;19;19938;-64
2023/03/02 12:10:30;;;;;;;;;;;;;;;8.90;60.67;102127.78;7357787;19;19922;-65
2023/03/02 12:13:01;;;;;;;;;;;;;;;8.87;60.76;102122.75;7359155;19;20331;-64
2023/03/02 12:15:35;;;;;;;;;;;;;;;8.93;61.26;102122.31;7356838;19;19926;-65
2023/03/02 12:18:14;;;;;;;;;;;;;;;9.01;59.83;102119.97;7359851;19;20351;-64
2023/03/02 12:20:41;;;;;;;;;;;;;;;9.06;60.67;102117.00;7357819;19;19922;-64
2023/03/02 12:23:20;;;;;;;;;;;;;;;9.10;60.45;102121.09;7358565;19;20593;-65
2023/03/02 12:25:49;;;;;;;;;;;;;;;9.06;60.56;102115.22;7357963;19;19915;-64
2023/03/02 12:28:20;;;;;;;;;;;;;;;9.06;60.27;102117.84;7358357;19;20021;-65
2023/03/02 12:30:54;;;;;;;;;;;;;;;9.03;61.07;102115.47;7355764;19;20554;-66
2023/03/02 12:33:21;;;;;;;;;;;;;;;8.98;61.76;102113.19;7350516;19;20268;-64
2023/03/02 12:35:49;;;;;;;;;;;;;;;9.01;61.71;102115.56;7355383;19;19936;-65
2023/03/02 12:38:22;;;;;;;;;;;;;;;9.05;62.52;102116.16;7359246;19;20424;-64
2023/03/02 12:40:50;;;;;;;;;;;;;;;9.12;62.96;102114.78;7356842;19;20362;-65
2023/03/02 12:43:20;;;;;;;;;;;;;;;9.14;61.48;102120.78;7355859;19;19919;-64
2023/03/02 12:45:50;;;;;;;;;;;;;;;9.11;61.04;102117.53;7354299;19;19927;-63
2023/03/02 12:48:24;;;;;;;;;;;;;;;9.13;61.11;102113.84;7358713;19;19918;-65
2023/03/02 12:50:55;;;;;;;;;;;;;;;9.13;60.71;102115.63;7355844;19;19953;-64
2023/03/02 12:53:22;;;;;;;;;;;;;;;9.15;61.18;102111.09;7355730;19;19907;-65